Time;durP1;ratioP1;P1;durP2;ratioP2;P2;SDS_P1;SDS_P2;PMS_P1;PMS_P2;Temp;Humidity;BMP_temperature;BMP_pressure;BME280_temperature;BME280_humidity;BME280_pressure;Samples;Min_cycle;Max_cycle;Signal;HPM_P1;HPM_P2
2022/03/22 00:01:24;;;;;;;14.23;8.20;;;10.50;99.90;;;;;;4998081;28;20406;-67
2022/03/22 00:03:50;;;;;;;11.20;7.20;;;10.50;99.90;;;;;;5005615;28;20042;-67
2022/03/22 00:06:18;;;;;;;12.10;7.60;;;10.40;99.90;;;;;;4989975;28;20045;-67
2022/03/22 00:08:44;;;;;;;13.38;8.23;;;10.30;99.90;;;;;;4995935;28;20038;-67
2022/03/22 00:11:11;;;;;;;12.60;8.55;;;10.30;99.90;;;;;;4994540;28;20035;-67
2022/03/22 00:13:37;;;;;;;16.33;8.32;;;10.20;99.90;;;;;;4999966;28;20037;-67
2022/03/22 00:16:04;;;;;;;17.77;8.75;;;10.20;99.90;;;;;;5003348;28;20029;-67
2022/03/22 00:18:29;;;;;;;21.13;9.38;;;10.10;99.90;;;;;;4992727;28;20550;-67
2022/03/22 00:20:56;;;;;;;15.65;8.93;;;10.10;99.90;;;;;;4992541;28;20026;-67
2022/03/22 00:23:22;;;;;;;21.92;9.50;;;9.90;99.90;;;;;;4994948;28;20041;-67
2022/03/22 00:25:48;;;;;;;20.42;10.07;;;9.90;99.90;;;;;;4993696;28;20034;-68
2022/03/22 00:28:14;;;;;;;15.25;7.85;;;9.80;99.90;;;;;;4994828;28;20509;-67
2022/03/22 00:30:40;;;;;;;15.27;8.95;;;9.90;99.90;;;;;;4994368;28;20091;-67
2022/03/22 00:33:07;;;;;;;14.75;8.00;;;9.80;99.90;;;;;;4991107;28;20495;-67
2022/03/22 00:35:38;;;;;;;14.98;7.88;;;9.80;99.90;;;;;;5004755;28;20479;-67
2022/03/22 00:38:08;;;;;;;15.77;8.48;;;9.80;99.90;;;;;;4993710;28;20038;-67
2022/03/22 00:40:35;;;;;;;12.30;7.78;;;9.80;99.90;;;;;;4994332;28;20145;-67
2022/03/22 00:43:01;;;;;;;14.30;8.30;;;9.70;99.90;;;;;;4985929;28;20451;-67
2022/03/22 00:45:32;;;;;;;16.35;9.23;;;9.70;99.90;;;;;;4991050;28;20400;-67
2022/03/22 00:47:59;;;;;;;15.52;7.80;;;9.60;99.90;;;;;;4992097;28;20504;-67
2022/03/22 00:50:29;;;;;;;14.10;7.78;;;9.70;99.90;;;;;;4996210;28;20038;-67
2022/03/22 00:52:56;;;;;;;13.70;8.68;;;9.50;99.90;;;;;;4994466;28;20398;-67
2022/03/22 00:55:24;;;;;;;11.85;7.88;;;9.60;99.90;;;;;;4994648;28;20061;-67
2022/03/22 00:57:51;;;;;;;14.23;7.18;;;9.50;99.90;;;;;;4994484;28;20034;-67
2022/03/22 01:00:17;;;;;;;12.80;7.45;;;9.40;99.90;;;;;;4990850;28;20042;-67
2022/03/22 01:02:45;;;;;;;11.77;7.60;;;9.40;99.90;;;;;;4994988;28;20048;-67
2022/03/22 01:05:16;;;;;;;14.23;7.22;;;9.40;99.90;;;;;;4993638;28;20109;-67
2022/03/22 01:07:43;;;;;;;11.32;7.30;;;9.40;99.90;;;;;;4994225;28;20503;-67
2022/03/22 01:10:10;;;;;;;13.60;7.60;;;9.40;99.90;;;;;;4994208;28;20121;-67
2022/03/22 01:12:38;;;;;;;12.82;7.97;;;9.40;99.90;;;;;;4991769;28;20398;-67
2022/03/22 01:15:10;;;;;;;13.00;7.60;;;9.40;99.90;;;;;;4990245;28;20026;-67
2022/03/22 01:17:37;;;;;;;15.90;7.97;;;9.30;99.90;;;;;;4995928;28;20430;-67
2022/03/22 01:20:06;;;;;;;10.85;7.18;;;9.30;99.90;;;;;;5002493;28;20451;-67
2022/03/22 01:22:32;;;;;;;13.65;7.10;;;9.20;99.90;;;;;;4999025;28;20100;-67
2022/03/22 01:24:59;;;;;;;13.30;7.47;;;9.20;99.90;;;;;;4992830;28;20084;-67
2022/03/22 01:27:26;;;;;;;13.75;7.22;;;9.20;99.90;;;;;;4991715;28;20034;-67
2022/03/22 01:29:52;;;;;;;11.32;7.43;;;9.20;99.90;;;;;;4997330;28;20516;-67
2022/03/22 01:32:18;;;;;;;12.30;7.25;;;9.10;99.90;;;;;;5001208;28;20394;-67
2022/03/22 01:34:44;;;;;;;14.15;7.53;;;9.10;99.90;;;;;;5001123;28;20097;-67
2022/03/22 01:37:10;;;;;;;9.95;7.07;;;9.00;99.90;;;;;;4996716;28;20460;-67
2022/03/22 01:39:36;;;;;;;13.70;7.05;;;9.00;99.90;;;;;;4997235;28;20072;-67
2022/03/22 01:42:03;;;;;;;9.88;7.20;;;8.90;99.90;;;;;;4994723;28;20450;-67
2022/03/22 01:44:29;;;;;;;11.32;7.22;;;8.90;99.90;;;;;;4998740;28;20455;-67
2022/03/22 01:47:03;;;;;;;11.15;7.22;;;8.90;99.90;;;;;;4997441;28;20054;-68
2022/03/22 01:49:29;;;;;;;11.13;7.03;;;9.00;99.90;;;;;;4997810;28;20038;-67
2022/03/22 01:51:55;;;;;;;11.57;6.25;;;8.90;99.90;;;;;;4995416;28;20034;-67
2022/03/22 01:54:21;;;;;;;11.60;6.82;;;8.90;99.90;;;;;;4993314;28;20030;-67
2022/03/22 01:56:49;;;;;;;12.48;6.50;;;9.00;99.90;;;;;;4997931;28;20026;-67
2022/03/22 01:59:15;;;;;;;12.23;6.70;;;9.00;99.90;;;;;;4998971;28;20042;-67
2022/03/22 02:07:14;;;;;;;12.00;6.47;;;8.80;99.90;;;;;;4997661;28;20037;-67
2022/03/22 02:09:41;;;;;;;10.15;6.35;;;8.80;99.90;;;;;;4997098;28;20037;-67
2022/03/22 02:12:07;;;;;;;13.05;7.10;;;8.80;99.90;;;;;;4993577;28;20113;-67
2022/03/22 02:14:32;;;;;;;11.02;6.18;;;8.70;99.90;;;;;;5009468;28;20065;-67
2022/03/22 02:16:59;;;;;;;9.95;6.68;;;8.70;99.90;;;;;;4998777;28;20124;-67
2022/03/22 02:19:25;;;;;;;9.50;6.25;;;8.60;99.90;;;;;;4995904;28;20042;-67
2022/03/22 02:21:58;;;;;;;13.43;6.45;;;8.60;99.90;;;;;;4995636;28;20398;-67
2022/03/22 02:24:24;;;;;;;12.73;6.87;;;8.60;99.90;;;;;;4992928;28;20299;-67
2022/03/22 02:26:49;;;;;;;13.85;7.10;;;8.60;99.90;;;;;;4998315;28;20327;-67
2022/03/22 02:29:15;;;;;;;11.45;6.57;;;8.60;99.90;;;;;;4998095;28;20034;-67
2022/03/22 02:31:41;;;;;;;11.40;6.57;;;8.60;99.90;;;;;;4996918;28;20022;-67
2022/03/22 02:34:06;;;;;;;13.40;7.07;;;8.50;99.90;;;;;;4995816;28;20450;-67
2022/03/22 02:36:32;;;;;;;13.38;6.40;;;8.40;99.90;;;;;;4994379;28;20447;-67
2022/03/22 02:38:58;;;;;;;8.82;6.20;;;8.40;99.90;;;;;;4994133;28;20033;-67
2022/03/22 02:41:25;;;;;;;10.38;6.50;;;8.50;99.90;;;;;;4998006;28;20055;-67
2022/03/22 02:43:51;;;;;;;9.60;5.90;;;8.40;99.90;;;;;;4995637;28;20392;-67
2022/03/22 02:46:17;;;;;;;11.18;6.25;;;8.40;99.90;;;;;;4996447;28;20458;-67
2022/03/22 02:48:43;;;;;;;12.13;6.35;;;8.40;99.90;;;;;;4996007;28;20120;-68
2022/03/22 02:51:11;;;;;;;9.70;6.50;;;8.30;99.90;;;;;;5007070;28;20026;-67
2022/03/22 02:53:36;;;;;;;11.75;6.22;;;8.20;99.90;;;;;;4998742;28;20049;-67
2022/03/22 02:56:03;;;;;;;10.93;6.20;;;8.30;99.90;;;;;;5003281;28;20486;-67
2022/03/22 02:58:29;;;;;;;12.07;6.80;;;8.20;99.90;;;;;;5002294;28;20130;-67
2022/03/22 03:00:54;;;;;;;11.23;6.75;;;8.20;99.90;;;;;;4994680;28;20030;-67
2022/03/22 03:03:22;;;;;;;11.07;6.40;;;8.20;99.90;;;;;;4993029;28;20034;-67
2022/03/22 03:05:49;;;;;;;12.02;6.45;;;8.20;99.90;;;;;;4996478;28;20029;-68
2022/03/22 03:08:15;;;;;;;12.10;6.38;;;8.10;99.90;;;;;;4997255;28;20042;-67
2022/03/22 03:10:42;;;;;;;11.68;6.72;;;8.20;99.90;;;;;;4995575;28;20509;-67
2022/03/22 03:13:08;;;;;;;12.75;6.57;;;8.10;99.90;;;;;;4994579;28;20038;-68
2022/03/22 03:15:33;;;;;;;11.13;6.30;;;8.10;99.90;;;;;;4995214;28;20087;-68
2022/03/22 03:17:59;;;;;;;11.80;6.55;;;8.20;99.90;;;;;;4993189;28;20456;-68
2022/03/22 03:20:25;;;;;;;11.65;6.70;;;8.20;99.90;;;;;;4998328;28;20018;-68
2022/03/22 03:22:51;;;;;;;9.70;6.72;;;8.20;99.90;;;;;;4997921;28;20037;-67
2022/03/22 03:25:18;;;;;;;12.02;7.00;;;8.00;99.90;;;;;;4996430;28;20026;-67
2022/03/22 03:27:43;;;;;;;11.63;6.63;;;8.00;99.90;;;;;;4995544;28;20069;-68
2022/03/22 03:30:09;;;;;;;10.63;6.60;;;8.00;99.90;;;;;;4992607;28;20061;-67
2022/03/22 03:32:36;;;;;;;11.55;7.20;;;8.00;99.90;;;;;;4998233;28;20483;-67
2022/03/22 03:35:03;;;;;;;11.63;6.75;;;8.00;99.90;;;;;;4995844;28;20030;-67
2022/03/22 03:37:32;;;;;;;10.18;6.85;;;8.00;99.90;;;;;;4996170;28;20491;-67
2022/03/22 03:39:57;;;;;;;10.40;6.93;;;8.00;99.90;;;;;;4994193;28;20060;-68
2022/03/22 03:42:23;;;;;;;11.38;6.57;;;7.90;99.90;;;;;;4992255;28;20070;-68
2022/03/22 03:47:34;;;;;;;9.50;7.00;;;7.80;99.90;;;;;;4998151;28;20038;-67
2022/03/22 03:50:05;;;;;;;10.13;6.88;;;7.80;99.90;;;;;;4995545;28;20384;-68
2022/03/22 03:52:36;;;;;;;14.35;6.90;;;7.70;99.90;;;;;;4993850;28;20022;-68
2022/03/22 03:55:05;;;;;;;11.98;6.60;;;7.70;99.90;;;;;;4995461;28;20061;-68
2022/03/22 03:57:32;;;;;;;13.68;7.50;;;7.70;99.90;;;;;;4992992;28;20028;-68
2022/03/22 03:59:58;;;;;;;12.73;7.18;;;7.70;99.90;;;;;;4993432;28;20030;-67
2022/03/22 04:02:25;;;;;;;11.40;7.20;;;7.70;99.90;;;;;;4995533;28;20038;-67
2022/03/22 04:04:52;;;;;;;11.80;7.72;;;7.80;99.90;;;;;;4995147;28;20022;-67
2022/03/22 04:07:20;;;;;;;10.13;6.90;;;7.70;99.90;;;;;;4995292;28;20048;-67
2022/03/22 04:09:45;;;;;;;11.85;7.20;;;7.60;99.90;;;;;;5005803;28;20048;-67
2022/03/22 04:12:14;;;;;;;13.68;7.80;;;7.50;99.90;;;;;;4975302;28;20452;-67
2022/03/22 04:14:40;;;;;;;13.00;7.85;;;7.60;99.90;;;;;;4994351;28;20042;-67
2022/03/22 04:17:09;;;;;;;12.20;7.72;;;7.60;99.90;;;;;;4995099;28;20034;-67
2022/03/22 04:19:36;;;;;;;13.35;7.18;;;7.60;99.90;;;;;;4994330;28;20026;-67
2022/03/22 04:22:03;;;;;;;11.05;7.55;;;7.60;99.90;;;;;;4994858;28;20034;-68
2022/03/22 04:24:29;;;;;;;13.73;7.88;;;7.60;99.90;;;;;;4993226;28;20509;-67
2022/03/22 04:32:41;;;;;;;19.63;8.00;;;7.60;99.90;;;;;;4994894;28;20075;-67
2022/03/22 04:32:43;;;;;;;19.80;14.73;;;7.60;99.90;;;;;;4995164;28;20096;-68
2022/03/22 04:35:24;;;;;;;14.23;7.90;;;7.60;99.90;;;;;;4995603;28;20046;-67
2022/03/22 04:37:53;;;;;;;10.77;7.15;;;7.50;99.90;;;;;;4995077;28;20065;-67
2022/03/22 04:40:19;;;;;;;11.52;7.43;;;7.60;99.90;;;;;;4993006;28;20036;-67
2022/03/22 04:42:47;;;;;;;13.00;7.55;;;7.50;99.90;;;;;;4994381;28;20137;-67
2022/03/22 04:45:13;;;;;;;11.70;7.30;;;7.50;99.90;;;;;;4974965;28;20027;-67
2022/03/22 04:47:39;;;;;;;13.95;7.47;;;7.50;99.90;;;;;;4996653;28;20406;-67
2022/03/22 04:50:08;;;;;;;12.98;8.15;;;7.40;99.90;;;;;;4994878;28;20038;-67
2022/03/22 04:58:04;;;;;;;15.43;9.18;;;7.40;99.90;;;;;;4992912;28;20041;-67
2022/03/22 05:00:30;;;;;;;13.48;7.75;;;7.40;99.90;;;;;;4992292;28;20113;-67
2022/03/22 05:02:56;;;;;;;14.70;7.90;;;7.30;99.90;;;;;;4992258;28;20026;-67
2022/03/22 05:08:07;;;;;;;13.32;7.95;;;7.30;99.90;;;;;;4993999;28;20085;-67
2022/03/22 05:10:34;;;;;;;13.75;8.18;;;7.20;99.90;;;;;;4992634;28;20097;-67
2022/03/22 05:12:59;;;;;;;13.20;8.07;;;7.20;99.90;;;;;;4994462;28;20040;-67
2022/03/22 05:15:25;;;;;;;13.40;8.07;;;7.20;99.90;;;;;;4991997;28;20018;-68
2022/03/22 05:17:51;;;;;;;13.38;7.95;;;7.10;99.90;;;;;;5000615;28;20034;-67
2022/03/22 05:20:17;;;;;;;14.32;9.02;;;7.10;99.90;;;;;;4995498;28;20057;-67
2022/03/22 05:22:44;;;;;;;14.60;9.30;;;7.00;99.90;;;;;;4994226;28;20026;-67
2022/03/22 05:25:10;;;;;;;14.00;9.43;;;7.00;99.90;;;;;;4994323;28;20030;-67
2022/03/22 05:27:37;;;;;;;14.52;8.80;;;7.00;99.90;;;;;;4992824;28;20053;-67
2022/03/22 05:30:04;;;;;;;15.25;8.38;;;6.90;99.90;;;;;;4991181;28;20122;-67
2022/03/22 05:32:30;;;;;;;14.52;8.48;;;6.90;99.90;;;;;;4996371;28;20031;-67
2022/03/22 05:34:56;;;;;;;13.27;8.60;;;6.80;99.90;;;;;;4994750;28;20044;-67
2022/03/22 05:37:22;;;;;;;14.52;8.73;;;6.80;99.90;;;;;;4993585;28;20038;-67
2022/03/22 05:39:48;;;;;;;12.68;8.02;;;6.70;99.90;;;;;;4993794;28;20053;-66
2022/03/22 05:42:16;;;;;;;15.00;8.80;;;6.80;99.90;;;;;;4992558;28;20046;-67
2022/03/22 05:44:43;;;;;;;15.80;8.85;;;6.70;99.90;;;;;;5003636;28;20030;-67
2022/03/22 05:47:09;;;;;;;14.48;8.40;;;6.70;99.90;;;;;;4992926;28;20388;-67
2022/03/22 05:49:36;;;;;;;13.23;8.20;;;6.80;99.90;;;;;;4992790;28;20026;-67
2022/03/22 05:52:03;;;;;;;16.40;7.80;;;6.70;99.90;;;;;;4993562;28;20034;-67
2022/03/22 05:54:29;;;;;;;13.73;7.88;;;6.80;99.90;;;;;;4991339;28;20031;-67
2022/03/22 05:56:55;;;;;;;11.38;7.85;;;6.80;99.90;;;;;;4992898;28;20451;-67
2022/03/22 05:59:21;;;;;;;18.70;9.18;;;6.80;99.90;;;;;;4993995;28;20117;-67
2022/03/22 06:01:46;;;;;;;16.48;9.52;;;6.80;99.90;;;;;;4993935;28;20053;-68
2022/03/22 06:04:12;;;;;;;15.40;8.85;;;6.70;99.90;;;;;;4993921;28;20154;-68
2022/03/22 06:06:39;;;;;;;13.73;9.32;;;6.80;99.90;;;;;;4986440;28;20019;-68
2022/03/22 06:09:05;;;;;;;15.73;9.30;;;6.90;99.90;;;;;;4989674;28;20051;-68
2022/03/22 06:11:35;;;;;;;18.10;11.23;;;6.90;99.90;;;;;;4995849;28;20495;-67
2022/03/22 06:14:04;;;;;;;16.65;9.90;;;6.90;99.90;;;;;;4993770;28;20042;-68
2022/03/22 06:16:31;;;;;;;16.17;9.95;;;6.90;99.90;;;;;;4994644;28;20030;-67
2022/03/22 06:18:57;;;;;;;19.08;9.40;;;7.10;99.90;;;;;;4997586;28;20030;-67
2022/03/22 06:21:22;;;;;;;18.60;9.15;;;7.10;99.90;;;;;;4994076;28;20109;-67
2022/03/22 06:23:48;;;;;;;13.52;8.63;;;7.20;99.90;;;;;;4997318;28;20229;-67
2022/03/22 06:26:14;;;;;;;13.88;9.02;;;7.30;99.90;;;;;;4997924;28;20085;-67
2022/03/22 06:28:41;;;;;;;12.35;8.73;;;7.50;99.90;;;;;;5000789;28;20042;-67
2022/03/22 06:31:07;;;;;;;14.63;8.35;;;7.70;99.90;;;;;;5005773;28;20034;-67
2022/03/22 06:33:33;;;;;;;13.93;8.55;;;8.00;99.90;;;;;;4995215;28;20453;-67
2022/03/22 06:35:59;;;;;;;13.77;8.40;;;8.40;99.90;;;;;;4995412;28;20026;-67
2022/03/22 06:38:25;;;;;;;16.05;7.78;;;8.60;99.90;;;;;;4996793;28;20472;-67
2022/03/22 06:40:52;;;;;;;12.73;8.10;;;9.10;99.90;;;;;;4996754;28;20037;-66
2022/03/22 06:43:18;;;;;;;15.82;9.25;;;9.20;99.90;;;;;;4996851;28;20034;-67
2022/03/22 06:45:46;;;;;;;14.20;8.40;;;9.90;99.90;;;;;;4995725;28;20104;-67
2022/03/22 06:48:12;;;;;;;14.48;10.45;;;9.70;99.90;;;;;;4991275;28;20058;-67
2022/03/22 06:50:39;;;;;;;18.45;10.32;;;9.20;99.90;;;;;;4998480;28;20018;-67
2022/03/22 06:53:07;;;;;;;13.82;8.88;;;9.10;99.90;;;;;;4996772;28;20046;-67
2022/03/22 06:55:34;;;;;;;18.80;9.15;;;9.50;99.90;;;;;;4994830;28;20080;-66
2022/03/22 06:58:01;;;;;;;13.15;9.13;;;9.50;99.90;;;;;;4996854;28;20072;-67
2022/03/22 07:00:27;;;;;;;17.70;11.10;;;9.60;99.90;;;;;;4993368;28;20049;-67
2022/03/22 07:02:54;;;;;;;15.85;11.10;;;9.60;99.90;;;;;;4995760;28;20038;-67
2022/03/22 07:05:20;;;;;;;13.95;8.40;;;10.00;99.90;;;;;;4997746;28;20034;-67
2022/03/22 07:07:46;;;;;;;13.32;7.75;;;10.20;99.90;;;;;;4995119;28;20062;-67
2022/03/22 07:10:14;;;;;;;13.07;8.23;;;10.40;99.90;;;;;;4996463;28;20065;-67
2022/03/22 07:12:51;;;;;;;12.68;7.55;;;10.50;99.90;;;;;;4995868;28;20533;-67
2022/03/22 07:15:19;;;;;;;13.30;7.38;;;11.50;99.90;;;;;;4977526;28;20093;-67
2022/03/22 07:17:45;;;;;;;15.32;6.97;;;12.50;99.80;;;;;;4998137;28;20026;-67
2022/03/22 07:20:12;;;;;;;12.73;7.45;;;12.90;98.40;;;;;;4996644;28;20377;-67
2022/03/22 07:22:37;;;;;;;12.75;7.32;;;13.00;98.10;;;;;;4996185;28;20029;-67
2022/03/22 07:25:03;;;;;;;9.82;6.93;;;13.50;97.80;;;;;;4996390;28;20033;-66
2022/03/22 07:27:30;;;;;;;12.20;7.03;;;14.00;97.20;;;;;;4993832;28;20034;-67
2022/03/22 07:29:57;;;;;;;11.57;6.80;;;14.40;96.10;;;;;;4994616;28;20541;-67
2022/03/22 07:32:22;;;;;;;9.27;6.97;;;15.20;95.30;;;;;;4998245;28;20153;-67
2022/03/22 07:34:48;;;;;;;12.10;6.82;;;16.00;94.40;;;;;;4994191;28;20046;-66
2022/03/22 07:37:14;;;;;;;9.48;7.15;;;16.00;93.70;;;;;;4996581;28;20030;-65
2022/03/22 07:39:40;;;;;;;11.95;7.15;;;15.10;95.10;;;;;;5007433;28;20407;-66
2022/03/22 07:42:06;;;;;;;10.00;6.65;;;15.20;94.00;;;;;;4992587;28;20053;-66
2022/03/22 07:44:32;;;;;;;10.32;7.03;;;16.80;93.00;;;;;;4997946;28;20399;-65
2022/03/22 07:46:59;;;;;;;10.45;6.63;;;17.30;92.30;;;;;;4994457;28;20030;-66
2022/03/22 07:55:00;;;;;;;9.98;6.82;;;16.00;93.40;;;;;;4973151;28;20089;-66
2022/03/22 07:57:26;;;;;;;10.63;6.53;;;17.10;92.20;;;;;;4970425;28;20459;-66
2022/03/22 07:59:52;;;;;;;11.27;6.82;;;17.70;91.60;;;;;;4957410;28;20030;-65
2022/03/22 08:02:18;;;;;;;10.07;6.80;;;17.00;91.60;;;;;;4975209;28;20034;-66
2022/03/22 08:04:43;;;;;;;10.98;6.93;;;17.30;91.30;;;;;;4972153;28;20037;-66
2022/03/22 08:07:09;;;;;;;8.68;6.85;;;17.00;92.50;;;;;;4972326;28;20415;-66
2022/03/22 08:09:35;;;;;;;14.20;6.70;;;17.30;91.90;;;;;;4971429;28;20519;-66
2022/03/22 08:12:01;;;;;;;9.85;6.82;;;17.90;90.90;;;;;;4955450;28;20042;-66
2022/03/22 08:14:27;;;;;;;10.95;6.63;;;17.30;91.40;;;;;;4974125;28;20031;-67
2022/03/22 08:16:53;;;;;;;10.23;6.30;;;17.70;91.20;;;;;;4972467;28;20038;-66
2022/03/22 08:19:19;;;;;;;9.27;6.82;;;18.10;90.90;;;;;;4971793;28;20035;-64
2022/03/22 08:21:48;;;;;;;8.90;6.45;;;20.20;88.40;;;;;;4974056;28;20081;-65
2022/03/22 08:24:14;;;;;;;11.13;6.90;;;18.40;90.20;;;;;;4954567;28;20053;-67
2022/03/22 08:26:40;;;;;;;10.18;6.47;;;19.40;90.10;;;;;;4963331;28;20034;-64
2022/03/22 08:29:06;;;;;;;7.93;6.32;;;19.50;88.00;;;;;;4966274;28;20055;-64
2022/03/22 08:31:32;;;;;;;9.85;6.20;;;19.50;88.90;;;;;;4984870;28;20018;-65
2022/03/22 08:33:58;;;;;;;9.70;6.70;;;19.50;88.00;;;;;;4986050;28;20093;-64
2022/03/22 08:36:23;;;;;;;15.60;6.72;;;18.70;89.50;;;;;;4989736;28;20022;-64
2022/03/22 08:38:49;;;;;;;10.40;6.70;;;17.70;91.10;;;;;;4987786;28;20069;-64
2022/03/22 08:41:16;;;;;;;9.32;6.25;;;19.20;89.90;;;;;;4986725;28;20038;-64
2022/03/22 08:43:42;;;;;;;9.23;6.00;;;21.10;86.00;;;;;;4986523;28;20478;-65
2022/03/22 08:46:08;;;;;;;10.90;6.68;;;20.50;86.50;;;;;;4986244;28;20019;-67
2022/03/22 08:48:34;;;;;;;10.23;6.72;;;19.00;89.70;;;;;;4988482;28;20046;-66
2022/03/22 08:51:00;;;;;;;10.85;6.43;;;19.90;88.80;;;;;;4984160;28;20072;-66
2022/03/22 08:53:27;;;;;;;12.70;6.50;;;18.60;90.30;;;;;;4991948;28;20057;-69
2022/03/22 08:55:52;;;;;;;10.55;6.32;;;19.10;89.80;;;;;;4988180;28;20034;-68
2022/03/22 08:58:18;;;;;;;10.40;6.32;;;20.00;88.60;;;;;;4986313;28;20117;-68
2022/03/22 09:00:48;;;;;;;11.15;6.40;;;20.20;87.60;;;;;;4986215;28;20115;-67
2022/03/22 09:03:14;;;;;;;12.75;6.53;;;21.20;85.50;;;;;;4973220;28;20437;-67
2022/03/22 09:08:25;;;;;;;9.68;6.45;;;21.00;85.20;;;;;;4977282;28;20094;-66
2022/03/22 09:10:51;;;;;;;10.02;6.13;;;18.70;89.30;;;;;;4977676;28;20031;-67
2022/03/22 09:13:18;;;;;;;10.02;6.00;;;18.50;90.10;;;;;;4979959;28;20035;-66
2022/03/22 09:15:47;;;;;;;9.75;6.55;;;20.10;90.30;;;;;;4977306;28;20038;-67
2022/03/22 09:18:21;;;;;;;8.57;6.45;;;20.60;87.80;;;;;;4975051;28;20553;-67
2022/03/22 09:20:48;;;;;;;10.55;5.65;;;19.90;88.80;;;;;;4990599;28;20031;-67
2022/03/22 09:23:14;;;;;;;9.10;6.07;;;20.50;89.20;;;;;;4986549;28;20019;-67
2022/03/22 09:25:43;;;;;;;11.35;5.90;;;19.90;88.40;;;;;;4986260;28;20045;-67
2022/03/22 09:28:11;;;;;;;9.68;6.25;;;19.70;88.00;;;;;;4994490;28;20041;-67
2022/03/22 09:30:40;;;;;;;9.23;5.97;;;18.80;90.50;;;;;;4991418;28;20057;-67
2022/03/22 09:33:07;;;;;;;11.18;6.97;;;19.60;90.00;;;;;;4990715;28;22301;-68
2022/03/22 09:35:34;;;;;;;9.23;6.03;;;20.20;87.60;;;;;;4996860;28;20158;-67
2022/03/22 09:37:59;;;;;;;11.00;6.07;;;19.60;89.10;;;;;;4994375;28;20026;-67
2022/03/22 09:40:27;;;;;;;10.45;5.70;;;20.30;89.00;;;;;;4989647;28;20049;-67
2022/03/22 09:42:55;;;;;;;11.60;5.45;;;20.30;88.40;;;;;;4992834;28;20117;-67
2022/03/22 09:45:27;;;;;;;9.90;5.80;;;20.20;87.90;;;;;;4990598;28;20590;-67
2022/03/22 09:47:54;;;;;;;10.32;5.80;;;21.00;87.60;;;;;;4993220;28;20060;-67
2022/03/22 09:51:44;;;;;;;9.52;6.20;;;20.60;88.30;;;;;;4996691;28;20045;-67
2022/03/22 09:53:07;;;;;;;10.77;6.07;;;19.90;88.70;;;;;;4996662;28;20423;-67
2022/03/22 09:55:35;;;;;;;10.10;5.63;;;20.00;89.30;;;;;;4998069;28;20046;-67
2022/03/22 09:58:01;;;;;;;8.45;5.63;;;20.50;88.70;;;;;;4998245;28;20042;-67
2022/03/22 10:00:27;;;;;;;9.77;5.82;;;20.70;87.00;;;;;;4993684;28;20054;-67
2022/03/22 10:02:52;;;;;;;8.93;5.30;;;20.50;88.40;;;;;;4997087;28;20066;-67
2022/03/22 10:05:23;;;;;;;10.38;5.80;;;21.00;87.00;;;;;;4998983;28;20547;-67
2022/03/22 10:07:59;;;;;;;8.77;5.25;;;20.50;88.20;;;;;;4997572;28;20046;-67
2022/03/22 10:10:26;;;;;;;9.60;5.43;;;19.40;90.20;;;;;;4996089;28;20026;-67
2022/03/22 10:13:00;;;;;;;11.07;6.10;;;20.30;89.00;;;;;;4995818;28;20053;-66
2022/03/22 10:15:33;;;;;;;9.75;5.90;;;20.60;89.70;;;;;;4993924;28;20523;-67
2022/03/22 10:18:23;;;;;;;9.57;5.47;;;19.90;89.00;;;;;;4993153;28;20092;-69
2022/03/22 10:20:57;;;;;;;9.43;5.50;;;19.60;90.20;;;;;;4989640;28;20061;-68
2022/03/22 10:23:22;;;;;;;9.00;5.35;;;21.10;88.20;;;;;;4987874;28;20026;-70
2022/03/22 10:25:48;;;;;;;8.77;5.40;;;19.90;89.40;;;;;;4987777;28;20034;-71
2022/03/22 10:28:14;;;;;;;9.02;5.10;;;19.70;90.10;;;;;;4986876;28;20047;-71
2022/03/22 10:30:40;;;;;;;11.48;5.05;;;20.30;89.10;;;;;;4985593;28;20887;-72
2022/03/22 10:33:06;;;;;;;8.15;5.30;;;19.80;90.10;;;;;;4976586;28;20462;-68
2022/03/22 10:35:34;;;;;;;8.68;5.35;;;19.70;90.20;;;;;;4993073;28;20033;-69
2022/03/22 10:38:03;;;;;;;9.10;5.05;;;20.50;90.00;;;;;;4981243;28;20039;-66
2022/03/22 10:40:40;;;;;;;8.30;4.70;;;20.40;89.60;;;;;;4980094;28;20058;-67
2022/03/22 10:43:07;;;;;;;7.95;5.10;;;20.60;89.70;;;;;;4985292;28;20046;-68
2022/03/22 10:45:54;;;;;;;7.72;4.88;;;20.30;89.60;;;;;;4987357;28;20022;-70
2022/03/22 10:48:20;;;;;;;7.93;5.00;;;20.00;89.80;;;;;;4976855;28;20062;-68
2022/03/22 10:50:47;;;;;;;8.15;4.95;;;20.60;89.00;;;;;;4988637;28;20026;-69
2022/03/22 10:53:18;;;;;;;8.77;5.03;;;19.70;90.30;;;;;;4977948;28;20023;-68
2022/03/22 10:55:45;;;;;;;7.95;4.90;;;19.80;89.80;;;;;;4982582;28;20026;-68
2022/03/22 10:58:17;;;;;;;13.27;5.05;;;19.20;90.90;;;;;;4987657;28;20030;-66
2022/03/22 11:00:45;;;;;;;8.05;4.78;;;18.40;91.60;;;;;;4989867;28;20073;-65
2022/03/22 11:03:12;;;;;;;7.47;4.30;;;19.60;90.80;;;;;;4976302;28;20033;-65
2022/03/22 11:05:40;;;;;;;8.07;4.50;;;19.60;90.90;;;;;;4978918;28;20126;-67
2022/03/22 11:08:06;;;;;;;10.55;4.18;;;20.20;89.00;;;;;;4979964;28;20129;-66
2022/03/22 11:10:32;;;;;;;9.13;4.35;;;18.60;91.00;;;;;;4979332;28;20035;-67
2022/03/22 11:12:59;;;;;;;6.95;4.07;;;19.40;90.20;;;;;;4979674;28;20025;-67
2022/03/22 11:15:35;;;;;;;7.32;4.15;;;19.60;90.30;;;;;;4977132;28;20054;-68
2022/03/22 11:18:02;;;;;;;10.82;4.72;;;20.10;89.10;;;;;;4976980;28;20499;-67
2022/03/22 11:20:28;;;;;;;7.50;4.25;;;20.10;88.50;;;;;;4979066;28;20034;-68
2022/03/22 11:23:00;;;;;;;11.35;4.20;;;19.70;90.00;;;;;;4992856;28;20050;-68
2022/03/22 11:25:31;;;;;;;7.57;4.55;;;19.70;90.00;;;;;;4995183;28;20034;-68
2022/03/22 11:28:04;;;;;;;7.20;4.65;;;19.30;89.60;;;;;;4993896;28;20128;-68
2022/03/22 11:30:31;;;;;;;7.32;4.45;;;19.30;90.00;;;;;;4992859;28;20098;-67
2022/03/22 11:35:59;;;;;;;8.55;4.40;;;20.00;88.70;;;;;;5005078;28;20033;-67
2022/03/22 11:38:46;;;;;;;11.40;5.07;;;18.60;90.80;;;;;;4996154;28;20466;-68
2022/03/22 11:44:27;;;;;;;8.68;4.18;;;18.10;91.40;;;;;;4995760;28;20534;-67
2022/03/22 11:47:17;;;;;;;7.78;4.40;;;18.70;90.90;;;;;;4995451;28;20030;-68
2022/03/22 11:50:05;;;;;;;6.45;3.83;;;18.20;91.30;;;;;;4994580;28;20043;-68
2022/03/22 11:52:35;;;;;;;7.90;3.97;;;18.20;91.70;;;;;;4995601;28;20018;-68
2022/03/22 11:55:07;;;;;;;6.88;4.05;;;18.60;91.70;;;;;;4996962;28;20041;-68
2022/03/22 11:57:44;;;;;;;7.22;4.13;;;18.10;91.70;;;;;;4990473;28;20088;-68
2022/03/22 12:00:11;;;;;;;7.93;4.20;;;17.80;91.90;;;;;;4990617;28;20609;-71
2022/03/22 12:02:40;;;;;;;6.25;4.10;;;18.40;91.80;;;;;;4989010;28;20515;-70
2022/03/22 12:05:07;;;;;;;8.13;4.65;;;18.20;91.70;;;;;;4988429;28;20073;-70
2022/03/22 12:07:37;;;;;;;8.45;4.07;;;18.40;91.50;;;;;;4983509;28;20041;-72
2022/03/22 12:10:08;;;;;;;10.27;4.55;;;18.40;91.70;;;;;;4978535;28;20038;-72
2022/03/22 12:12:35;;;;;;;9.73;4.90;;;18.40;91.50;;;;;;4976741;28;20094;-72
2022/03/22 12:15:05;;;;;;;10.93;4.97;;;18.30;91.70;;;;;;4975742;28;20031;-69
2022/03/22 12:17:31;;;;;;;8.57;4.35;;;18.40;91.50;;;;;;4977905;28;20031;-70
2022/03/22 12:20:11;;;;;;;6.82;4.57;;;18.40;92.10;;;;;;4978258;28;20034;-70
2022/03/22 12:22:45;;;;;;;7.50;4.03;;;19.60;91.20;;;;;;4977581;28;20034;-67
2022/03/22 12:25:15;;;;;;;8.75;4.30;;;20.00;90.60;;;;;;4977610;28;20395;-68
2022/03/22 12:27:59;;;;;;;8.70;4.90;;;20.10;90.40;;;;;;4977187;28;20030;-68
2022/03/22 12:30:28;;;;;;;12.52;5.57;;;19.30;90.40;;;;;;4975919;28;20030;-68
2022/03/22 12:32:56;;;;;;;8.57;4.60;;;19.10;91.50;;;;;;4989499;28;20033;-68
2022/03/22 12:35:23;;;;;;;8.77;4.65;;;18.80;90.70;;;;;;4987234;28;20026;-67
2022/03/22 12:37:51;;;;;;;9.27;4.10;;;18.70;91.00;;;;;;4985346;28;20038;-68
2022/03/22 12:40:18;;;;;;;7.80;3.90;;;18.50;91.20;;;;;;4978827;28;20027;-68
2022/03/22 12:42:44;;;;;;;5.95;3.78;;;18.50;91.60;;;;;;4989018;28;20503;-67
2022/03/22 12:45:11;;;;;;;7.00;3.85;;;18.50;91.20;;;;;;4974088;28;20085;-68
2022/03/22 12:47:39;;;;;;;8.95;4.20;;;18.20;91.20;;;;;;4984795;28;20423;-67
2022/03/22 12:50:10;;;;;;;6.68;3.92;;;18.20;91.50;;;;;;4988586;28;20062;-69
2022/03/22 12:52:36;;;;;;;7.43;4.10;;;18.30;91.30;;;;;;4986274;28;20039;-69
2022/03/22 12:55:03;;;;;;;7.80;4.15;;;18.20;91.60;;;;;;4984016;28;20097;-68
2022/03/22 12:57:30;;;;;;;8.52;4.10;;;18.10;91.50;;;;;;4988279;28;20026;-68
2022/03/22 12:59:56;;;;;;;12.45;4.10;;;18.40;91.90;;;;;;4975526;28;20031;-68
2022/03/22 13:02:22;;;;;;;11.52;4.15;;;18.50;91.50;;;;;;4983825;28;20022;-67
2022/03/22 13:04:51;;;;;;;7.45;3.65;;;18.30;91.50;;;;;;4985540;28;20034;-68
2022/03/22 13:07:24;;;;;;;5.75;3.90;;;18.40;91.50;;;;;;4986310;28;20030;-68
2022/03/22 13:12:37;;;;;;;8.88;4.20;;;18.50;91.30;;;;;;4987864;28;20038;-68
2022/03/22 13:15:08;;;;;;;9.57;3.90;;;18.50;91.00;;;;;;4988948;28;20026;-68
2022/03/22 13:17:54;;;;;;;6.03;3.63;;;18.60;91.10;;;;;;4988107;28;20236;-68
2022/03/22 13:20:24;;;;;;;8.73;3.90;;;18.60;91.00;;;;;;4998976;28;20038;-68
2022/03/22 13:23:06;;;;;;;6.53;3.70;;;18.40;91.10;;;;;;4977506;28;20113;-67
2022/03/22 13:25:36;;;;;;;7.80;4.20;;;18.90;90.70;;;;;;4981065;28;20026;-67